Shonto, Arizona
Current Conditions -  °F | °C
As of 5:53 PM on Thursday 27 Nov 2014 (Local Time) from KPGA Reporting Station
Clear Clear  
Wind Chill: 50°   Ceiling: Unl
Heat Index: 50°   Visibility: 10mi
Dew Point: 21°   Wind: 0mph
Humidity: 32%   Direction: NA
Pressure: 30.29"   Gusts: NA
Location:  36.59°N, 110.65°W
Report Text: KPGA 280053Z AUTO 00000KT 10SM CLR 10/M06 A3029 RMK AO2 SLP247 T01001061 TSNO
Loading
Personal Weather Stations






























Interactive Weather Map New forecast layout! Learn more

10-Day Weather Forecast

Advertisements
Track Severe Weather on mobile